sensor_id;sensor_type;location;lat;lon;timestamp;temperature;humidity
39219;DHT22;24934;52.752;6.964;2022-12-20T00:01:14;9.10;99.90
39219;DHT22;24934;52.752;6.964;2022-12-20T00:03:40;9.00;99.90
39219;DHT22;24934;52.752;6.964;2022-12-20T00:06:06;8.90;99.90
39219;DHT22;24934;52.752;6.964;2022-12-20T00:08:33;8.90;99.90
39219;DHT22;24934;52.752;6.964;2022-12-20T00:11:01;8.90;99.90
39219;DHT22;24934;52.752;6.964;2022-12-20T00:13:27;8.90;99.90
39219;DHT22;24934;52.752;6.964;2022-12-20T00:16:11;8.90;99.90
39219;DHT22;24934;52.752;6.964;2022-12-20T00:18:38;8.90;99.90
39219;DHT22;24934;52.752;6.964;2022-12-20T00:21:06;8.80;99.90
39219;DHT22;24934;52.752;6.964;2022-12-20T00:23:32;8.80;99.90
39219;DHT22;24934;52.752;6.964;2022-12-20T00:26:10;8.80;99.90
39219;DHT22;24934;52.752;6.964;2022-12-20T00:28:37;8.90;99.90
39219;DHT22;24934;52.752;6.964;2022-12-20T00:31:04;8.90;99.90
39219;DHT22;24934;52.752;6.964;2022-12-20T00:33:29;8.90;99.90
39219;DHT22;24934;52.752;6.964;2022-12-20T00:35:56;8.90;99.90
39219;DHT22;24934;52.752;6.964;2022-12-20T00:38:23;8.90;99.90
39219;DHT22;24934;52.752;6.964;2022-12-20T00:40:59;8.90;99.90
39219;DHT22;24934;52.752;6.964;2022-12-20T00:43:24;9.00;99.90
39219;DHT22;24934;52.752;6.964;2022-12-20T00:45:50;9.00;99.90
39219;DHT22;24934;52.752;6.964;2022-12-20T00:48:16;9.00;99.90
39219;DHT22;24934;52.752;6.964;2022-12-20T00:50:41;9.10;99.90
39219;DHT22;24934;52.752;6.964;2022-12-20T00:53:07;9.20;99.90
39219;DHT22;24934;52.752;6.964;2022-12-20T00:55:39;9.20;99.90
39219;DHT22;24934;52.752;6.964;2022-12-20T00:58:05;9.30;99.90
39219;DHT22;24934;52.752;6.964;2022-12-20T01:00:31;9.20;99.90
39219;DHT22;24934;52.752;6.964;2022-12-20T01:02:56;9.20;99.90
39219;DHT22;24934;52.752;6.964;2022-12-20T01:05:22;9.20;99.90
39219;DHT22;24934;52.752;6.964;2022-12-20T01:07:47;9.20;99.90
39219;DHT22;24934;52.752;6.964;2022-12-20T01:10:13;9.20;99.90
39219;DHT22;24934;52.752;6.964;2022-12-20T01:12:41;9.10;99.90
39219;DHT22;24934;52.752;6.964;2022-12-20T01:15:10;9.10;99.90
39219;DHT22;24934;52.752;6.964;2022-12-20T01:17:36;9.10;99.90
39219;DHT22;24934;52.752;6.964;2022-12-20T01:20:02;9.10;99.90
39219;DHT22;24934;52.752;6.964;2022-12-20T01:22:27;9.10;99.90
39219;DHT22;24934;52.752;6.964;2022-12-20T01:24:53;9.10;99.90
39219;DHT22;24934;52.752;6.964;2022-12-20T01:27:19;9.10;99.90
39219;DHT22;24934;52.752;6.964;2022-12-20T01:29:45;9.10;99.90
39219;DHT22;24934;52.752;6.964;2022-12-20T01:32:10;9.20;99.90
39219;DHT22;24934;52.752;6.964;2022-12-20T01:34:36;9.20;99.90
39219;DHT22;24934;52.752;6.964;2022-12-20T01:37:02;9.20;99.90
39219;DHT22;24934;52.752;6.964;2022-12-20T01:39:27;9.20;99.90
39219;DHT22;24934;52.752;6.964;2022-12-20T01:41:53;9.30;99.90
39219;DHT22;24934;52.752;6.964;2022-12-20T01:46:46;9.30;99.90
39219;DHT22;24934;52.752;6.964;2022-12-20T01:49:30;9.30;99.90
39219;DHT22;24934;52.752;6.964;2022-12-20T01:52:06;9.30;99.90
39219;DHT22;24934;52.752;6.964;2022-12-20T01:57:11;9.30;99.90
39219;DHT22;24934;52.752;6.964;2022-12-20T01:59:39;9.30;99.90
39219;DHT22;24934;52.752;6.964;2022-12-20T02:02:09;9.30;99.90
39219;DHT22;24934;52.752;6.964;2022-12-20T02:04:36;9.40;99.90
39219;DHT22;24934;52.752;6.964;2022-12-20T02:07:02;9.40;99.90
39219;DHT22;24934;52.752;6.964;2022-12-20T02:09:30;9.40;99.90
39219;DHT22;24934;52.752;6.964;2022-12-20T02:12:13;9.40;99.90
39219;DHT22;24934;52.752;6.964;2022-12-20T02:18:09;9.50;99.90
39219;DHT22;24934;52.752;6.964;2022-12-20T02:32:21;9.50;99.90
39219;DHT22;24934;52.752;6.964;2022-12-20T02:34:49;9.60;99.90
39219;DHT22;24934;52.752;6.964;2022-12-20T02:37:15;9.60;99.90
39219;DHT22;24934;52.752;6.964;2022-12-20T02:39:41;9.60;99.90
39219;DHT22;24934;52.752;6.964;2022-12-20T02:42:14;9.60;99.90
39219;DHT22;24934;52.752;6.964;2022-12-20T02:44:45;9.60;99.90
39219;DHT22;24934;52.752;6.964;2022-12-20T02:47:34;9.60;99.90
39219;DHT22;24934;52.752;6.964;2022-12-20T02:50:03;9.60;99.90
39219;DHT22;24934;52.752;6.964;2022-12-20T02:52:30;9.50;99.90
39219;DHT22;24934;52.752;6.964;2022-12-20T02:54:57;9.50;99.90
39219;DHT22;24934;52.752;6.964;2022-12-20T02:57:41;9.50;99.90
39219;DHT22;24934;52.752;6.964;2022-12-20T03:00:15;9.40;99.90
39219;DHT22;24934;52.752;6.964;2022-12-20T03:02:43;9.40;99.90
39219;DHT22;24934;52.752;6.964;2022-12-20T03:05:28;9.40;99.90
39219;DHT22;24934;52.752;6.964;2022-12-20T03:07:54;9.40;99.90
39219;DHT22;24934;52.752;6.964;2022-12-20T03:10:21;9.40;99.90
39219;DHT22;24934;52.752;6.964;2022-12-20T03:12:47;9.40;99.90
39219;DHT22;24934;52.752;6.964;2022-12-20T03:15:12;9.40;99.90
39219;DHT22;24934;52.752;6.964;2022-12-20T03:17:38;9.50;99.90
39219;DHT22;24934;52.752;6.964;2022-12-20T03:20:05;9.50;99.90
39219;DHT22;24934;52.752;6.964;2022-12-20T03:22:32;9.50;99.90
39219;DHT22;24934;52.752;6.964;2022-12-20T03:24:58;9.50;99.90
39219;DHT22;24934;52.752;6.964;2022-12-20T03:27:26;9.50;99.90
39219;DHT22;24934;52.752;6.964;2022-12-20T03:29:53;9.50;99.90
39219;DHT22;24934;52.752;6.964;2022-12-20T03:32:18;9.40;99.90
39219;DHT22;24934;52.752;6.964;2022-12-20T03:34:44;9.30;99.90
39219;DHT22;24934;52.752;6.964;2022-12-20T03:37:10;9.30;99.90
39219;DHT22;24934;52.752;6.964;2022-12-20T03:39:35;9.20;99.90
39219;DHT22;24934;52.752;6.964;2022-12-20T03:42:01;9.20;99.90
39219;DHT22;24934;52.752;6.964;2022-12-20T03:44:27;9.10;99.90
39219;DHT22;24934;52.752;6.964;2022-12-20T03:46:52;9.10;99.90
39219;DHT22;24934;52.752;6.964;2022-12-20T03:49:18;9.00;99.90
39219;DHT22;24934;52.752;6.964;2022-12-20T03:51:43;9.00;99.90
39219;DHT22;24934;52.752;6.964;2022-12-20T03:54:09;9.00;99.90
39219;DHT22;24934;52.752;6.964;2022-12-20T03:56:35;9.00;99.90
39219;DHT22;24934;52.752;6.964;2022-12-20T03:59:03;8.90;99.90
39219;DHT22;24934;52.752;6.964;2022-12-20T04:01:28;9.00;99.90
39219;DHT22;24934;52.752;6.964;2022-12-20T04:03:54;9.00;99.90
39219;DHT22;24934;52.752;6.964;2022-12-20T04:06:21;9.00;99.90
39219;DHT22;24934;52.752;6.964;2022-12-20T04:08:47;9.00;99.90
39219;DHT22;24934;52.752;6.964;2022-12-20T04:11:13;9.00;99.90
39219;DHT22;24934;52.752;6.964;2022-12-20T04:13:43;9.00;99.90
39219;DHT22;24934;52.752;6.964;2022-12-20T04:16:09;9.00;99.90
39219;DHT22;24934;52.752;6.964;2022-12-20T04:18:35;9.00;99.90
39219;DHT22;24934;52.752;6.964;2022-12-20T04:21:01;9.00;99.90
39219;DHT22;24934;52.752;6.964;2022-12-20T04:23:27;9.00;99.90
39219;DHT22;24934;52.752;6.964;2022-12-20T04:25:53;9.00;99.90
39219;DHT22;24934;52.752;6.964;2022-12-20T04:28:18;9.00;99.90
39219;DHT22;24934;52.752;6.964;2022-12-20T04:30:44;9.10;99.90
39219;DHT22;24934;52.752;6.964;2022-12-20T04:33:10;9.00;99.90
39219;DHT22;24934;52.752;6.964;2022-12-20T04:35:36;9.00;99.90
39219;DHT22;24934;52.752;6.964;2022-12-20T04:38:02;9.00;99.90
39219;DHT22;24934;52.752;6.964;2022-12-20T04:40:28;9.00;99.90
39219;DHT22;24934;52.752;6.964;2022-12-20T04:42:54;9.10;99.90
39219;DHT22;24934;52.752;6.964;2022-12-20T04:45:19;9.10;99.90
39219;DHT22;24934;52.752;6.964;2022-12-20T04:47:45;9.10;99.90
39219;DHT22;24934;52.752;6.964;2022-12-20T04:50:10;9.10;99.90
39219;DHT22;24934;52.752;6.964;2022-12-20T04:52:36;9.10;99.90
39219;DHT22;24934;52.752;6.964;2022-12-20T04:55:20;9.10;99.90
39219;DHT22;24934;52.752;6.964;2022-12-20T04:57:46;9.20;99.90
39219;DHT22;24934;52.752;6.964;2022-12-20T05:00:12;9.20;99.90
39219;DHT22;24934;52.752;6.964;2022-12-20T05:02:45;9.20;99.90
39219;DHT22;24934;52.752;6.964;2022-12-20T05:05:10;9.20;99.90
39219;DHT22;24934;52.752;6.964;2022-12-20T05:07:36;9.20;99.90
39219;DHT22;24934;52.752;6.964;2022-12-20T05:10:02;9.20;99.90
39219;DHT22;24934;52.752;6.964;2022-12-20T05:12:28;9.30;99.90
39219;DHT22;24934;52.752;6.964;2022-12-20T05:14:54;9.30;99.90
39219;DHT22;24934;52.752;6.964;2022-12-20T05:17:19;9.40;99.90
39219;DHT22;24934;52.752;6.964;2022-12-20T05:19:45;9.50;99.90
39219;DHT22;24934;52.752;6.964;2022-12-20T05:22:10;9.50;99.90
39219;DHT22;24934;52.752;6.964;2022-12-20T05:24:55;9.60;99.90
39219;DHT22;24934;52.752;6.964;2022-12-20T05:27:39;9.60;99.90
39219;DHT22;24934;52.752;6.964;2022-12-20T05:30:05;9.70;99.90
39219;DHT22;24934;52.752;6.964;2022-12-20T05:32:33;9.70;99.90
39219;DHT22;24934;52.752;6.964;2022-12-20T05:34:59;9.80;99.90
39219;DHT22;24934;52.752;6.964;2022-12-20T05:37:24;9.80;99.90
39219;DHT22;24934;52.752;6.964;2022-12-20T05:39:50;9.90;99.90
39219;DHT22;24934;52.752;6.964;2022-12-20T05:42:16;9.90;99.90
39219;DHT22;24934;52.752;6.964;2022-12-20T05:44:41;9.90;99.90
39219;DHT22;24934;52.752;6.964;2022-12-20T05:47:07;9.90;99.90
39219;DHT22;24934;52.752;6.964;2022-12-20T05:49:33;10.00;99.90
39219;DHT22;24934;52.752;6.964;2022-12-20T05:51:59;9.90;99.90
39219;DHT22;24934;52.752;6.964;2022-12-20T05:54:25;10.00;99.90
39219;DHT22;24934;52.752;6.964;2022-12-20T05:56:53;10.00;99.90
39219;DHT22;24934;52.752;6.964;2022-12-20T05:59:19;10.00;99.90
39219;DHT22;24934;52.752;6.964;2022-12-20T06:01:45;10.10;99.90
39219;DHT22;24934;52.752;6.964;2022-12-20T06:04:10;10.00;99.90
39219;DHT22;24934;52.752;6.964;2022-12-20T06:06:39;10.00;99.90
39219;DHT22;24934;52.752;6.964;2022-12-20T06:09:05;10.10;99.90
39219;DHT22;24934;52.752;6.964;2022-12-20T06:11:30;10.00;99.90
39219;DHT22;24934;52.752;6.964;2022-12-20T06:13:56;9.90;99.90
39219;DHT22;24934;52.752;6.964;2022-12-20T06:16:21;9.90;99.90
39219;DHT22;24934;52.752;6.964;2022-12-20T06:18:47;9.80;99.90
39219;DHT22;24934;52.752;6.964;2022-12-20T06:21:13;9.80;99.90
39219;DHT22;24934;52.752;6.964;2022-12-20T06:23:38;9.90;99.90
39219;DHT22;24934;52.752;6.964;2022-12-20T06:26:05;9.90;99.90
39219;DHT22;24934;52.752;6.964;2022-12-20T06:28:33;9.90;99.90
39219;DHT22;24934;52.752;6.964;2022-12-20T06:30:59;9.90;99.90
39219;DHT22;24934;52.752;6.964;2022-12-20T06:33:25;9.90;99.90
39219;DHT22;24934;52.752;6.964;2022-12-20T06:35:51;9.90;99.90
39219;DHT22;24934;52.752;6.964;2022-12-20T06:38:17;9.90;99.90
39219;DHT22;24934;52.752;6.964;2022-12-20T06:40:43;9.90;99.90
39219;DHT22;24934;52.752;6.964;2022-12-20T06:43:09;10.00;99.90
39219;DHT22;24934;52.752;6.964;2022-12-20T06:45:34;9.90;99.90
39219;DHT22;24934;52.752;6.964;2022-12-20T06:48:01;10.00;99.90
39219;DHT22;24934;52.752;6.964;2022-12-20T06:50:26;10.00;99.90
39219;DHT22;24934;52.752;6.964;2022-12-20T06:52:52;10.00;99.90
39219;DHT22;24934;52.752;6.964;2022-12-20T06:55:18;10.00;99.90
39219;DHT22;24934;52.752;6.964;2022-12-20T06:57:44;10.00;99.90
39219;DHT22;24934;52.752;6.964;2022-12-20T07:00:10;9.90;99.90
39219;DHT22;24934;52.752;6.964;2022-12-20T07:02:38;9.90;99.90
39219;DHT22;24934;52.752;6.964;2022-12-20T07:05:04;9.90;99.90
39219;DHT22;24934;52.752;6.964;2022-12-20T07:07:30;9.80;99.90
39219;DHT22;24934;52.752;6.964;2022-12-20T07:09:55;9.80;99.90
39219;DHT22;24934;52.752;6.964;2022-12-20T07:12:21;9.80;99.90
39219;DHT22;24934;52.752;6.964;2022-12-20T07:14:48;9.70;99.90
39219;DHT22;24934;52.752;6.964;2022-12-20T07:17:13;9.70;99.90
39219;DHT22;24934;52.752;6.964;2022-12-20T07:19:40;9.80;99.90
39219;DHT22;24934;52.752;6.964;2022-12-20T07:22:06;9.70;99.90
39219;DHT22;24934;52.752;6.964;2022-12-20T07:24:32;9.80;99.90
39219;DHT22;24934;52.752;6.964;2022-12-20T07:26:58;9.80;99.90
39219;DHT22;24934;52.752;6.964;2022-12-20T07:29:29;9.80;99.90
39219;DHT22;24934;52.752;6.964;2022-12-20T07:31:54;9.80;99.90
39219;DHT22;24934;52.752;6.964;2022-12-20T07:34:20;9.80;99.90
39219;DHT22;24934;52.752;6.964;2022-12-20T07:36:49;9.80;99.90
39219;DHT22;24934;52.752;6.964;2022-12-20T07:39:15;9.80;99.90
39219;DHT22;24934;52.752;6.964;2022-12-20T07:41:40;9.80;99.90
39219;DHT22;24934;52.752;6.964;2022-12-20T07:44:06;9.70;99.90
39219;DHT22;24934;52.752;6.964;2022-12-20T07:46:34;9.70;99.90
39219;DHT22;24934;52.752;6.964;2022-12-20T07:49:00;9.70;99.90
39219;DHT22;24934;52.752;6.964;2022-12-20T07:51:34;9.70;99.90
39219;DHT22;24934;52.752;6.964;2022-12-20T07:54:10;9.70;99.90
39219;DHT22;24934;52.752;6.964;2022-12-20T07:56:42;9.80;99.90
39219;DHT22;24934;52.752;6.964;2022-12-20T07:59:10;9.80;99.90
39219;DHT22;24934;52.752;6.964;2022-12-20T08:01:37;9.80;99.90
39219;DHT22;24934;52.752;6.964;2022-12-20T08:04:07;9.80;99.90
39219;DHT22;24934;52.752;6.964;2022-12-20T08:06:38;9.80;99.90
39219;DHT22;24934;52.752;6.964;2022-12-20T08:09:06;9.80;99.90
39219;DHT22;24934;52.752;6.964;2022-12-20T08:11:34;9.80;99.90
39219;DHT22;24934;52.752;6.964;2022-12-20T08:14:01;9.80;99.90
39219;DHT22;24934;52.752;6.964;2022-12-20T08:16:27;9.80;99.90
39219;DHT22;24934;52.752;6.964;2022-12-20T08:18:52;9.90;99.90
39219;DHT22;24934;52.752;6.964;2022-12-20T08:21:18;9.90;99.90
39219;DHT22;24934;52.752;6.964;2022-12-20T08:23:44;9.90;99.90
39219;DHT22;24934;52.752;6.964;2022-12-20T08:26:12;9.90;99.90
39219;DHT22;24934;52.752;6.964;2022-12-20T08:28:38;10.00;99.90
39219;DHT22;24934;52.752;6.964;2022-12-20T08:31:06;10.00;99.90
39219;DHT22;24934;52.752;6.964;2022-12-20T08:33:34;10.00;99.90
39219;DHT22;24934;52.752;6.964;2022-12-20T08:36:01;10.10;99.90
39219;DHT22;24934;52.752;6.964;2022-12-20T08:38:28;10.10;99.90
39219;DHT22;24934;52.752;6.964;2022-12-20T08:40:55;10.10;99.90
39219;DHT22;24934;52.752;6.964;2022-12-20T08:43:21;10.20;99.90
39219;DHT22;24934;52.752;6.964;2022-12-20T08:45:53;10.20;99.90
39219;DHT22;24934;52.752;6.964;2022-12-20T08:48:23;10.20;99.90
39219;DHT22;24934;52.752;6.964;2022-12-20T08:50:59;10.20;99.90
39219;DHT22;24934;52.752;6.964;2022-12-20T08:53:26;10.20;99.90
39219;DHT22;24934;52.752;6.964;2022-12-20T08:55:52;10.30;99.90
39219;DHT22;24934;52.752;6.964;2022-12-20T08:58:19;10.30;99.90
39219;DHT22;24934;52.752;6.964;2022-12-20T09:00:45;10.30;99.90
39219;DHT22;24934;52.752;6.964;2022-12-20T09:03:12;10.40;99.90
39219;DHT22;24934;52.752;6.964;2022-12-20T09:05:47;10.40;99.90
39219;DHT22;24934;52.752;6.964;2022-12-20T09:08:16;10.40;99.90
39219;DHT22;24934;52.752;6.964;2022-12-20T09:10:42;10.40;99.90
39219;DHT22;24934;52.752;6.964;2022-12-20T09:13:09;10.40;99.90
39219;DHT22;24934;52.752;6.964;2022-12-20T09:15:35;10.40;99.90
39219;DHT22;24934;52.752;6.964;2022-12-20T09:18:01;10.40;99.90
39219;DHT22;24934;52.752;6.964;2022-12-20T09:20:27;10.40;99.90
39219;DHT22;24934;52.752;6.964;2022-12-20T09:22:53;10.30;99.90
39219;DHT22;24934;52.752;6.964;2022-12-20T09:25:19;10.30;99.90
39219;DHT22;24934;52.752;6.964;2022-12-20T09:27:44;10.30;99.90
39219;DHT22;24934;52.752;6.964;2022-12-20T09:30:10;10.30;99.90
39219;DHT22;24934;52.752;6.964;2022-12-20T09:32:36;10.20;99.90
39219;DHT22;24934;52.752;6.964;2022-12-20T09:35:03;10.20;99.90
39219;DHT22;24934;52.752;6.964;2022-12-20T09:37:29;10.20;99.90
39219;DHT22;24934;52.752;6.964;2022-12-20T09:39:56;10.20;99.90
39219;DHT22;24934;52.752;6.964;2022-12-20T09:42:25;10.30;99.90
39219;DHT22;24934;52.752;6.964;2022-12-20T09:45:00;10.30;99.90
39219;DHT22;24934;52.752;6.964;2022-12-20T09:47:26;10.20;99.90
39219;DHT22;24934;52.752;6.964;2022-12-20T09:49:54;10.20;99.90
39219;DHT22;24934;52.752;6.964;2022-12-20T10:00:19;10.20;99.90
39219;DHT22;24934;52.752;6.964;2022-12-20T10:02:46;10.10;99.90
39219;DHT22;24934;52.752;6.964;2022-12-20T10:05:14;10.10;99.90
39219;DHT22;24934;52.752;6.964;2022-12-20T10:15:37;9.90;99.90
39219;DHT22;24934;52.752;6.964;2022-12-20T10:25:51;9.70;99.90
39219;DHT22;24934;52.752;6.964;2022-12-20T10:28:19;9.70;99.90
39219;DHT22;24934;52.752;6.964;2022-12-20T10:30:48;9.70;99.90
39219;DHT22;24934;52.752;6.964;2022-12-20T10:33:25;9.60;99.90
39219;DHT22;24934;52.752;6.964;2022-12-20T10:35:51;9.60;99.90
39219;DHT22;24934;52.752;6.964;2022-12-20T10:38:20;9.60;99.90
39219;DHT22;24934;52.752;6.964;2022-12-20T10:41:02;9.60;99.90
39219;DHT22;24934;52.752;6.964;2022-12-20T10:43:44;9.50;99.90
39219;DHT22;24934;52.752;6.964;2022-12-20T10:46:12;9.50;99.90
39219;DHT22;24934;52.752;6.964;2022-12-20T10:48:40;9.50;99.90
39219;DHT22;24934;52.752;6.964;2022-12-20T10:53:36;9.50;99.90
39219;DHT22;24934;52.752;6.964;2022-12-20T10:56:17;9.40;99.90
39219;DHT22;24934;52.752;6.964;2022-12-20T11:01:21;9.50;99.90
39219;DHT22;24934;52.752;6.964;2022-12-20T11:04:33;9.50;99.90
39219;DHT22;24934;52.752;6.964;2022-12-20T11:07:01;9.50;99.90
39219;DHT22;24934;52.752;6.964;2022-12-20T11:09:36;9.50;99.90
39219;DHT22;24934;52.752;6.964;2022-12-20T11:12:14;9.50;99.90
39219;DHT22;24934;52.752;6.964;2022-12-20T11:14:42;9.60;99.90
39219;DHT22;24934;52.752;6.964;2022-12-20T11:17:35;9.60;99.90
39219;DHT22;24934;52.752;6.964;2022-12-20T11:36:00;9.70;99.90
39219;DHT22;24934;52.752;6.964;2022-12-20T11:38:40;9.70;99.90
39219;DHT22;24934;52.752;6.964;2022-12-20T11:54:33;9.60;99.90
39219;DHT22;24934;52.752;6.964;2022-12-20T11:57:25;9.60;99.90
39219;DHT22;24934;52.752;6.964;2022-12-20T11:59:56;9.60;99.90
39219;DHT22;24934;52.752;6.964;2022-12-20T12:02:50;9.60;99.90
39219;DHT22;24934;52.752;6.964;2022-12-20T12:05:33;9.60;99.90
39219;DHT22;24934;52.752;6.964;2022-12-20T12:08:04;9.50;99.90
39219;DHT22;24934;52.752;6.964;2022-12-20T12:10:36;9.50;99.90
39219;DHT22;24934;52.752;6.964;2022-12-20T12:13:17;9.50;99.90
39219;DHT22;24934;52.752;6.964;2022-12-20T12:15:52;9.50;99.90
39219;DHT22;24934;52.752;6.964;2022-12-20T12:18:30;9.50;99.90
39219;DHT22;24934;52.752;6.964;2022-12-20T12:24:36;9.50;99.90
39219;DHT22;24934;52.752;6.964;2022-12-20T12:27:03;9.50;99.90
39219;DHT22;24934;52.752;6.964;2022-12-20T12:29:31;9.50;99.90
39219;DHT22;24934;52.752;6.964;2022-12-20T12:50:58;9.60;99.90
39219;DHT22;24934;52.752;6.964;2022-12-20T12:53:42;9.60;99.90
39219;DHT22;24934;52.752;6.964;2022-12-20T13:07:40;9.60;99.90
39219;DHT22;24934;52.752;6.964;2022-12-20T13:17:51;9.60;99.90
39219;DHT22;24934;52.752;6.964;2022-12-20T13:23:22;9.60;99.90
39219;DHT22;24934;52.752;6.964;2022-12-20T13:25:51;9.60;99.90
39219;DHT22;24934;52.752;6.964;2022-12-20T13:36:03;9.60;99.90
39219;DHT22;24934;52.752;6.964;2022-12-20T13:41:43;9.60;99.90
39219;DHT22;24934;52.752;6.964;2022-12-20T13:52:20;9.60;99.90
39219;DHT22;24934;52.752;6.964;2022-12-20T13:54:48;9.60;99.90
39219;DHT22;24934;52.752;6.964;2022-12-20T13:57:26;9.60;99.90
39219;DHT22;24934;52.752;6.964;2022-12-20T13:59:54;9.60;99.90
39219;DHT22;24934;52.752;6.964;2022-12-20T14:02:23;9.60;99.90
39219;DHT22;24934;52.752;6.964;2022-12-20T14:05:15;9.60;99.90
39219;DHT22;24934;52.752;6.964;2022-12-20T14:07:42;9.60;99.90
39219;DHT22;24934;52.752;6.964;2022-12-20T14:10:20;9.60;99.90
39219;DHT22;24934;52.752;6.964;2022-12-20T14:12:49;9.60;99.90
39219;DHT22;24934;52.752;6.964;2022-12-20T14:15:31;9.60;99.90
39219;DHT22;24934;52.752;6.964;2022-12-20T14:18:04;9.60;99.90
39219;DHT22;24934;52.752;6.964;2022-12-20T14:20:32;9.60;99.90
39219;DHT22;24934;52.752;6.964;2022-12-20T14:23:09;9.60;99.90
39219;DHT22;24934;52.752;6.964;2022-12-20T14:25:41;9.60;99.90
39219;DHT22;24934;52.752;6.964;2022-12-20T14:28:28;9.60;99.90
39219;DHT22;24934;52.752;6.964;2022-12-20T14:30:55;9.70;99.90
39219;DHT22;24934;52.752;6.964;2022-12-20T14:36:05;9.60;99.90
39219;DHT22;24934;52.752;6.964;2022-12-20T14:38:31;9.70;99.90
39219;DHT22;24934;52.752;6.964;2022-12-20T14:40:57;9.70;99.90
39219;DHT22;24934;52.752;6.964;2022-12-20T14:43:33;9.70;99.90
39219;DHT22;24934;52.752;6.964;2022-12-20T14:46:17;9.70;99.90
39219;DHT22;24934;52.752;6.964;2022-12-20T14:48:44;9.70;99.90
39219;DHT22;24934;52.752;6.964;2022-12-20T14:51:09;9.70;99.90
39219;DHT22;24934;52.752;6.964;2022-12-20T14:53:38;9.70;99.90
39219;DHT22;24934;52.752;6.964;2022-12-20T14:56:04;9.70;99.90
39219;DHT22;24934;52.752;6.964;2022-12-20T14:58:32;9.70;99.90
39219;DHT22;24934;52.752;6.964;2022-12-20T15:03:24;9.70;99.90
39219;DHT22;24934;52.752;6.964;2022-12-20T15:05:55;9.70;99.90
39219;DHT22;24934;52.752;6.964;2022-12-20T15:08:31;9.70;99.90
39219;DHT22;24934;52.752;6.964;2022-12-20T15:13:36;9.70;99.90
39219;DHT22;24934;52.752;6.964;2022-12-20T15:16:20;9.70;99.90
39219;DHT22;24934;52.752;6.964;2022-12-20T15:18:48;9.70;99.90
39219;DHT22;24934;52.752;6.964;2022-12-20T15:21:28;9.70;99.90
39219;DHT22;24934;52.752;6.964;2022-12-20T15:23:59;9.70;99.90
39219;DHT22;24934;52.752;6.964;2022-12-20T15:26:28;9.70;99.90
39219;DHT22;24934;52.752;6.964;2022-12-20T15:28:55;9.70;99.90
39219;DHT22;24934;52.752;6.964;2022-12-20T15:31:22;9.70;99.90
39219;DHT22;24934;52.752;6.964;2022-12-20T15:33:50;9.70;99.90
39219;DHT22;24934;52.752;6.964;2022-12-20T15:36:20;9.70;99.90
39219;DHT22;24934;52.752;6.964;2022-12-20T15:38:47;9.70;99.90
39219;DHT22;24934;52.752;6.964;2022-12-20T15:41:29;9.70;99.90
39219;DHT22;24934;52.752;6.964;2022-12-20T15:44:03;9.70;99.90
39219;DHT22;24934;52.752;6.964;2022-12-20T15:46:32;9.70;99.90
39219;DHT22;24934;52.752;6.964;2022-12-20T15:48:58;9.70;99.90
39219;DHT22;24934;52.752;6.964;2022-12-20T15:51:35;9.70;99.90
39219;DHT22;24934;52.752;6.964;2022-12-20T15:54:05;9.70;99.90
39219;DHT22;24934;52.752;6.964;2022-12-20T15:56:31;9.70;99.90
39219;DHT22;24934;52.752;6.964;2022-12-20T15:59:00;9.70;99.90
39219;DHT22;24934;52.752;6.964;2022-12-20T16:01:30;9.70;99.90
39219;DHT22;24934;52.752;6.964;2022-12-20T16:04:01;9.70;99.90
39219;DHT22;24934;52.752;6.964;2022-12-20T16:06:27;9.70;99.90
39219;DHT22;24934;52.752;6.964;2022-12-20T16:08:52;9.70;99.90
39219;DHT22;24934;52.752;6.964;2022-12-20T16:11:26;9.70;99.90
39219;DHT22;24934;52.752;6.964;2022-12-20T16:13:53;9.70;99.90
39219;DHT22;24934;52.752;6.964;2022-12-20T16:16:24;9.70;99.90
39219;DHT22;24934;52.752;6.964;2022-12-20T16:18:51;9.70;99.90
39219;DHT22;24934;52.752;6.964;2022-12-20T16:21:25;9.70;99.90
39219;DHT22;24934;52.752;6.964;2022-12-20T16:23:52;9.70;99.90
39219;DHT22;24934;52.752;6.964;2022-12-20T16:26:20;9.70;99.90
39219;DHT22;24934;52.752;6.964;2022-12-20T16:28:47;9.70;99.90
39219;DHT22;24934;52.752;6.964;2022-12-20T16:33:44;9.70;99.90
39219;DHT22;24934;52.752;6.964;2022-12-20T16:36:11;9.70;99.90
39219;DHT22;24934;52.752;6.964;2022-12-20T16:38:36;9.60;99.90
39219;DHT22;24934;52.752;6.964;2022-12-20T16:41:21;9.70;99.90
39219;DHT22;24934;52.752;6.964;2022-12-20T16:43:48;9.70;99.90
39219;DHT22;24934;52.752;6.964;2022-12-20T16:46:17;9.70;99.90
39219;DHT22;24934;52.752;6.964;2022-12-20T16:48:43;9.60;99.90
39219;DHT22;24934;52.752;6.964;2022-12-20T16:51:27;9.70;99.90
39219;DHT22;24934;52.752;6.964;2022-12-20T16:54:03;9.70;99.90
39219;DHT22;24934;52.752;6.964;2022-12-20T16:56:32;9.70;99.90
39219;DHT22;24934;52.752;6.964;2022-12-20T16:59:00;9.70;99.90
39219;DHT22;24934;52.752;6.964;2022-12-20T17:01:37;9.70;99.90
39219;DHT22;24934;52.752;6.964;2022-12-20T17:04:04;9.70;99.90
39219;DHT22;24934;52.752;6.964;2022-12-20T17:06:39;9.70;99.90
39219;DHT22;24934;52.752;6.964;2022-12-20T17:09:05;9.70;99.90
39219;DHT22;24934;52.752;6.964;2022-12-20T17:11:31;9.60;99.90
39219;DHT22;24934;52.752;6.964;2022-12-20T17:13:58;9.60;99.90
39219;DHT22;24934;52.752;6.964;2022-12-20T17:16:25;9.60;99.90
39219;DHT22;24934;52.752;6.964;2022-12-20T17:18:54;9.60;99.90
39219;DHT22;24934;52.752;6.964;2022-12-20T17:21:27;9.60;99.90
39219;DHT22;24934;52.752;6.964;2022-12-20T17:23:54;9.70;99.90
39219;DHT22;24934;52.752;6.964;2022-12-20T17:26:24;9.60;99.90
39219;DHT22;24934;52.752;6.964;2022-12-20T17:28:52;9.60;99.90
39219;DHT22;24934;52.752;6.964;2022-12-20T17:33:54;9.60;99.90
39219;DHT22;24934;52.752;6.964;2022-12-20T17:36:20;9.60;99.90
39219;DHT22;24934;52.752;6.964;2022-12-20T17:38:46;9.60;99.90
39219;DHT22;24934;52.752;6.964;2022-12-20T17:41:26;9.60;99.90
39219;DHT22;24934;52.752;6.964;2022-12-20T17:43:53;9.60;99.90
39219;DHT22;24934;52.752;6.964;2022-12-20T17:46:22;9.60;99.90
39219;DHT22;24934;52.752;6.964;2022-12-20T17:48:51;9.60;99.90
39219;DHT22;24934;52.752;6.964;2022-12-20T17:51:27;9.60;99.90
39219;DHT22;24934;52.752;6.964;2022-12-20T17:54:02;9.60;99.90
39219;DHT22;24934;52.752;6.964;2022-12-20T17:56:32;9.60;99.90
39219;DHT22;24934;52.752;6.964;2022-12-20T17:58:59;9.60;99.90
39219;DHT22;24934;52.752;6.964;2022-12-20T18:01:29;9.60;99.90
39219;DHT22;24934;52.752;6.964;2022-12-20T18:04:00;9.60;99.90
39219;DHT22;24934;52.752;6.964;2022-12-20T18:06:26;9.60;99.90
39219;DHT22;24934;52.752;6.964;2022-12-20T18:08:56;9.60;99.90
39219;DHT22;24934;52.752;6.964;2022-12-20T18:11:27;9.50;99.90
39219;DHT22;24934;52.752;6.964;2022-12-20T18:13:56;9.50;99.90
39219;DHT22;24934;52.752;6.964;2022-12-20T18:16:28;9.50;99.90
39219;DHT22;24934;52.752;6.964;2022-12-20T18:18:55;9.50;99.90
39219;DHT22;24934;52.752;6.964;2022-12-20T18:21:25;9.50;99.90
39219;DHT22;24934;52.752;6.964;2022-12-20T18:23:51;9.50;99.90
39219;DHT22;24934;52.752;6.964;2022-12-20T18:26:21;9.50;99.90
39219;DHT22;24934;52.752;6.964;2022-12-20T18:28:49;9.50;99.90
39219;DHT22;24934;52.752;6.964;2022-12-20T18:31:19;9.50;99.90